sensor_id;sensor_type;location;lat;lon;timestamp;P1;durP1;ratioP1;P2;durP2;ratioP2
68449;SDS011;67758;39.572;2.652;2023-02-26T00:01:53;11.13;;;3.90;;
68449;SDS011;67758;39.572;2.652;2023-02-26T00:05:43;8.75;;;3.45;;
68449;SDS011;67758;39.572;2.652;2023-02-26T00:13:19;11.57;;;3.95;;
68449;SDS011;67758;39.572;2.652;2023-02-26T00:16:38;12.23;;;4.10;;
68449;SDS011;67758;39.572;2.652;2023-02-26T00:23:13;10.95;;;3.47;;
68449;SDS011;67758;39.572;2.652;2023-02-26T00:26:27;9.90;;;3.45;;
68449;SDS011;67758;39.572;2.652;2023-02-26T00:40:45;6.85;;;2.50;;
68449;SDS011;67758;39.572;2.652;2023-02-26T00:43:44;8.55;;;3.33;;
68449;SDS011;67758;39.572;2.652;2023-02-26T00:55:01;9.37;;;3.73;;
68449;SDS011;67758;39.572;2.652;2023-02-26T01:02:22;7.22;;;2.67;;
68449;SDS011;67758;39.572;2.652;2023-02-26T01:16:11;6.93;;;2.10;;
68449;SDS011;67758;39.572;2.652;2023-02-26T01:27:03;10.43;;;3.10;;
68449;SDS011;67758;39.572;2.652;2023-02-26T01:30:52;9.13;;;2.40;;
68449;SDS011;67758;39.572;2.652;2023-02-26T01:34:40;9.02;;;2.55;;
68449;SDS011;67758;39.572;2.652;2023-02-26T01:38:10;8.40;;;3.00;;
68449;SDS011;67758;39.572;2.652;2023-02-26T01:41:54;9.63;;;2.70;;
68449;SDS011;67758;39.572;2.652;2023-02-26T01:56:46;9.55;;;2.25;;
68449;SDS011;67758;39.572;2.652;2023-02-26T02:00:27;9.43;;;2.63;;
68449;SDS011;67758;39.572;2.652;2023-02-26T02:31:19;9.38;;;1.92;;
68449;SDS011;67758;39.572;2.652;2023-02-26T02:38:04;5.30;;;1.38;;
68449;SDS011;67758;39.572;2.652;2023-02-26T02:44:59;5.55;;;1.35;;
68449;SDS011;67758;39.572;2.652;2023-02-26T02:51:45;6.93;;;2.10;;
68449;SDS011;67758;39.572;2.652;2023-02-26T02:54:20;8.32;;;1.65;;
68449;SDS011;67758;39.572;2.652;2023-02-26T02:57:33;7.13;;;2.07;;
68449;SDS011;67758;39.572;2.652;2023-02-26T03:00:09;8.85;;;1.63;;
68449;SDS011;67758;39.572;2.652;2023-02-26T03:03:04;6.47;;;1.30;;
68449;SDS011;67758;39.572;2.652;2023-02-26T03:06:04;5.38;;;1.20;;
68449;SDS011;67758;39.572;2.652;2023-02-26T03:08:56;5.90;;;1.10;;
68449;SDS011;67758;39.572;2.652;2023-02-26T03:11:51;5.37;;;1.70;;
68449;SDS011;67758;39.572;2.652;2023-02-26T03:14:46;6.65;;;1.65;;
68449;SDS011;67758;39.572;2.652;2023-02-26T03:17:57;6.63;;;1.45;;
68449;SDS011;67758;39.572;2.652;2023-02-26T03:27:33;6.60;;;1.80;;
68449;SDS011;67758;39.572;2.652;2023-02-26T03:30:19;7.70;;;2.22;;
68449;SDS011;67758;39.572;2.652;2023-02-26T03:33:19;9.55;;;3.50;;
68449;SDS011;67758;39.572;2.652;2023-02-26T03:44:31;7.77;;;2.30;;
68449;SDS011;67758;39.572;2.652;2023-02-26T03:47:14;7.63;;;2.60;;
68449;SDS011;67758;39.572;2.652;2023-02-26T03:49:52;9.25;;;2.92;;
68449;SDS011;67758;39.572;2.652;2023-02-26T03:52:30;10.15;;;2.80;;
68449;SDS011;67758;39.572;2.652;2023-02-26T03:55:24;9.48;;;3.00;;
68449;SDS011;67758;39.572;2.652;2023-02-26T03:57:57;7.37;;;3.00;;
68449;SDS011;67758;39.572;2.652;2023-02-26T04:00:35;12.07;;;3.30;;
68449;SDS011;67758;39.572;2.652;2023-02-26T04:04:15;10.80;;;3.58;;
68449;SDS011;67758;39.572;2.652;2023-02-26T04:07:27;10.00;;;3.15;;
68449;SDS011;67758;39.572;2.652;2023-02-26T04:10:06;6.68;;;1.98;;
68449;SDS011;67758;39.572;2.652;2023-02-26T04:12:57;6.13;;;1.43;;
68449;SDS011;67758;39.572;2.652;2023-02-26T04:15:45;6.47;;;1.52;;
68449;SDS011;67758;39.572;2.652;2023-02-26T04:22:18;3.75;;;0.70;;
68449;SDS011;67758;39.572;2.652;2023-02-26T04:25:27;4.53;;;0.80;;
68449;SDS011;67758;39.572;2.652;2023-02-26T04:28:13;4.83;;;0.60;;
68449;SDS011;67758;39.572;2.652;2023-02-26T04:30:55;4.47;;;0.47;;
68449;SDS011;67758;39.572;2.652;2023-02-26T04:33:22;3.63;;;0.60;;
68449;SDS011;67758;39.572;2.652;2023-02-26T04:35:54;5.80;;;0.50;;
68449;SDS011;67758;39.572;2.652;2023-02-26T04:38:25;5.80;;;0.60;;
68449;SDS011;67758;39.572;2.652;2023-02-26T04:40:59;4.63;;;0.57;;
68449;SDS011;67758;39.572;2.652;2023-02-26T04:43:28;4.25;;;0.60;;
68449;SDS011;67758;39.572;2.652;2023-02-26T04:45:56;4.50;;;0.60;;
68449;SDS011;67758;39.572;2.652;2023-02-26T04:48:22;6.60;;;0.68;;
68449;SDS011;67758;39.572;2.652;2023-02-26T04:51:02;4.30;;;0.80;;
68449;SDS011;67758;39.572;2.652;2023-02-26T04:53:31;6.00;;;0.60;;
68449;SDS011;67758;39.572;2.652;2023-02-26T04:56:24;4.55;;;0.60;;
68449;SDS011;67758;39.572;2.652;2023-02-26T04:58:53;3.58;;;0.45;;
68449;SDS011;67758;39.572;2.652;2023-02-26T05:01:21;5.28;;;0.57;;
68449;SDS011;67758;39.572;2.652;2023-02-26T05:03:48;7.50;;;0.90;;
68449;SDS011;67758;39.572;2.652;2023-02-26T05:06:14;5.37;;;0.60;;
68449;SDS011;67758;39.572;2.652;2023-02-26T05:08:41;5.45;;;0.90;;
68449;SDS011;67758;39.572;2.652;2023-02-26T05:11:12;3.67;;;0.60;;
68449;SDS011;67758;39.572;2.652;2023-02-26T05:13:39;5.07;;;0.50;;
68449;SDS011;67758;39.572;2.652;2023-02-26T05:16:08;5.38;;;0.63;;
68449;SDS011;67758;39.572;2.652;2023-02-26T05:18:37;5.03;;;0.43;;
68449;SDS011;67758;39.572;2.652;2023-02-26T05:21:06;5.18;;;0.65;;
68449;SDS011;67758;39.572;2.652;2023-02-26T05:23:55;3.38;;;0.57;;
68449;SDS011;67758;39.572;2.652;2023-02-26T05:26:31;4.70;;;0.50;;
68449;SDS011;67758;39.572;2.652;2023-02-26T05:29:15;7.50;;;1.00;;
68449;SDS011;67758;39.572;2.652;2023-02-26T05:31:50;5.37;;;0.60;;
68449;SDS011;67758;39.572;2.652;2023-02-26T05:34:22;5.25;;;0.57;;
68449;SDS011;67758;39.572;2.652;2023-02-26T05:36:51;4.75;;;0.60;;
68449;SDS011;67758;39.572;2.652;2023-02-26T05:39:20;4.25;;;0.60;;
68449;SDS011;67758;39.572;2.652;2023-02-26T05:41:53;5.28;;;0.70;;
68449;SDS011;67758;39.572;2.652;2023-02-26T05:44:32;5.00;;;0.50;;
68449;SDS011;67758;39.572;2.652;2023-02-26T05:47:01;7.85;;;0.90;;
68449;SDS011;67758;39.572;2.652;2023-02-26T05:49:54;5.95;;;0.80;;
68449;SDS011;67758;39.572;2.652;2023-02-26T05:52:38;5.03;;;0.50;;
68449;SDS011;67758;39.572;2.652;2023-02-26T05:55:16;4.28;;;0.65;;
68449;SDS011;67758;39.572;2.652;2023-02-26T05:57:48;5.47;;;0.83;;
68449;SDS011;67758;39.572;2.652;2023-02-26T06:00:14;4.10;;;0.60;;
68449;SDS011;67758;39.572;2.652;2023-02-26T06:02:41;4.50;;;0.60;;
68449;SDS011;67758;39.572;2.652;2023-02-26T06:05:09;4.28;;;0.60;;
68449;SDS011;67758;39.572;2.652;2023-02-26T06:12:01;5.07;;;0.98;;
68449;SDS011;67758;39.572;2.652;2023-02-26T06:14:55;6.10;;;1.15;;
68449;SDS011;67758;39.572;2.652;2023-02-26T06:17:59;10.80;;;1.00;;
68449;SDS011;67758;39.572;2.652;2023-02-26T06:21:16;7.68;;;1.20;;
68449;SDS011;67758;39.572;2.652;2023-02-26T06:24:16;5.47;;;0.80;;
68449;SDS011;67758;39.572;2.652;2023-02-26T06:27:10;6.32;;;1.20;;
68449;SDS011;67758;39.572;2.652;2023-02-26T06:29:46;7.30;;;0.93;;
68449;SDS011;67758;39.572;2.652;2023-02-26T06:32:12;9.05;;;0.80;;
68449;SDS011;67758;39.572;2.652;2023-02-26T06:34:46;5.47;;;0.90;;
68449;SDS011;67758;39.572;2.652;2023-02-26T06:37:55;5.17;;;1.00;;
68449;SDS011;67758;39.572;2.652;2023-02-26T06:40:21;6.70;;;1.00;;
68449;SDS011;67758;39.572;2.652;2023-02-26T06:42:47;7.65;;;1.20;;
68449;SDS011;67758;39.572;2.652;2023-02-26T06:45:13;5.77;;;1.10;;
68449;SDS011;67758;39.572;2.652;2023-02-26T06:47:39;8.68;;;1.10;;
68449;SDS011;67758;39.572;2.652;2023-02-26T06:50:05;7.68;;;0.98;;
68449;SDS011;67758;39.572;2.652;2023-02-26T06:52:31;13.07;;;1.40;;
68449;SDS011;67758;39.572;2.652;2023-02-26T06:54:57;6.07;;;0.85;;
68449;SDS011;67758;39.572;2.652;2023-02-26T06:57:23;6.78;;;1.00;;
68449;SDS011;67758;39.572;2.652;2023-02-26T06:59:48;4.63;;;0.70;;
68449;SDS011;67758;39.572;2.652;2023-02-26T07:02:19;5.03;;;0.93;;
68449;SDS011;67758;39.572;2.652;2023-02-26T07:04:46;5.03;;;0.88;;
68449;SDS011;67758;39.572;2.652;2023-02-26T07:07:11;5.57;;;1.13;;
68449;SDS011;67758;39.572;2.652;2023-02-26T07:09:38;8.63;;;1.02;;
68449;SDS011;67758;39.572;2.652;2023-02-26T07:12:04;4.60;;;0.90;;
68449;SDS011;67758;39.572;2.652;2023-02-26T07:14:31;5.25;;;0.82;;
68449;SDS011;67758;39.572;2.652;2023-02-26T07:16:58;7.23;;;1.30;;
68449;SDS011;67758;39.572;2.652;2023-02-26T07:19:24;5.22;;;1.10;;
68449;SDS011;67758;39.572;2.652;2023-02-26T07:21:50;6.68;;;1.15;;
68449;SDS011;67758;39.572;2.652;2023-02-26T07:24:16;5.63;;;1.10;;
68449;SDS011;67758;39.572;2.652;2023-02-26T07:26:42;5.93;;;1.33;;
68449;SDS011;67758;39.572;2.652;2023-02-26T07:29:08;6.68;;;1.23;;
68449;SDS011;67758;39.572;2.652;2023-02-26T07:31:33;7.72;;;1.23;;
68449;SDS011;67758;39.572;2.652;2023-02-26T07:33:59;7.37;;;1.20;;
68449;SDS011;67758;39.572;2.652;2023-02-26T07:36:25;7.63;;;1.40;;
68449;SDS011;67758;39.572;2.652;2023-02-26T07:38:51;7.03;;;1.90;;
68449;SDS011;67758;39.572;2.652;2023-02-26T07:41:16;8.90;;;1.40;;
68449;SDS011;67758;39.572;2.652;2023-02-26T07:43:42;16.97;;;2.30;;
68449;SDS011;67758;39.572;2.652;2023-02-26T07:46:08;8.98;;;1.60;;
68449;SDS011;67758;39.572;2.652;2023-02-26T07:48:33;7.13;;;1.50;;
68449;SDS011;67758;39.572;2.652;2023-02-26T07:51:12;6.97;;;1.50;;
68449;SDS011;67758;39.572;2.652;2023-02-26T07:53:41;6.13;;;1.63;;
68449;SDS011;67758;39.572;2.652;2023-02-26T07:58:43;7.20;;;1.67;;
68449;SDS011;67758;39.572;2.652;2023-02-26T08:01:09;5.68;;;1.40;;
68449;SDS011;67758;39.572;2.652;2023-02-26T08:03:48;7.95;;;1.75;;
68449;SDS011;67758;39.572;2.652;2023-02-26T08:06:33;11.75;;;1.90;;
68449;SDS011;67758;39.572;2.652;2023-02-26T08:09:00;10.43;;;1.85;;
68449;SDS011;67758;39.572;2.652;2023-02-26T08:11:26;9.53;;;2.20;;
68449;SDS011;67758;39.572;2.652;2023-02-26T08:13:59;9.88;;;2.42;;
68449;SDS011;67758;39.572;2.652;2023-02-26T08:16:30;18.70;;;3.05;;
68449;SDS011;67758;39.572;2.652;2023-02-26T08:18:55;18.20;;;3.23;;
68449;SDS011;67758;39.572;2.652;2023-02-26T08:21:21;14.30;;;2.88;;
68449;SDS011;67758;39.572;2.652;2023-02-26T08:23:47;10.13;;;2.55;;
68449;SDS011;67758;39.572;2.652;2023-02-26T08:26:13;16.27;;;3.90;;
68449;SDS011;67758;39.572;2.652;2023-02-26T08:28:39;11.50;;;2.70;;
68449;SDS011;67758;39.572;2.652;2023-02-26T08:31:05;15.82;;;3.20;;
68449;SDS011;67758;39.572;2.652;2023-02-26T08:33:31;17.40;;;3.37;;
68449;SDS011;67758;39.572;2.652;2023-02-26T08:35:58;14.77;;;3.85;;
68449;SDS011;67758;39.572;2.652;2023-02-26T08:38:26;15.20;;;3.20;;
68449;SDS011;67758;39.572;2.652;2023-02-26T08:40:53;11.85;;;2.40;;
68449;SDS011;67758;39.572;2.652;2023-02-26T08:43:22;7.68;;;2.10;;
68449;SDS011;67758;39.572;2.652;2023-02-26T08:45:50;6.83;;;1.40;;
68449;SDS011;67758;39.572;2.652;2023-02-26T08:48:17;7.20;;;1.92;;
68449;SDS011;67758;39.572;2.652;2023-02-26T08:50:43;5.85;;;1.42;;
68449;SDS011;67758;39.572;2.652;2023-02-26T08:53:08;5.73;;;1.27;;
68449;SDS011;67758;39.572;2.652;2023-02-26T08:55:34;6.25;;;1.50;;
68449;SDS011;67758;39.572;2.652;2023-02-26T08:58:05;4.75;;;0.50;;
68449;SDS011;67758;39.572;2.652;2023-02-26T09:00:37;3.37;;;0.40;;
68449;SDS011;67758;39.572;2.652;2023-02-26T09:03:03;5.82;;;0.60;;
68449;SDS011;67758;39.572;2.652;2023-02-26T09:05:28;4.43;;;0.60;;
68449;SDS011;67758;39.572;2.652;2023-02-26T09:07:54;4.60;;;0.70;;
68449;SDS011;67758;39.572;2.652;2023-02-26T09:10:30;5.43;;;0.77;;
68449;SDS011;67758;39.572;2.652;2023-02-26T09:12:58;3.53;;;0.55;;
68449;SDS011;67758;39.572;2.652;2023-02-26T09:15:27;3.83;;;0.55;;
68449;SDS011;67758;39.572;2.652;2023-02-26T09:17:56;4.13;;;0.70;;
68449;SDS011;67758;39.572;2.652;2023-02-26T09:20:22;5.77;;;0.63;;
68449;SDS011;67758;39.572;2.652;2023-02-26T09:22:51;4.28;;;0.55;;
68449;SDS011;67758;39.572;2.652;2023-02-26T09:25:17;4.30;;;0.60;;
68449;SDS011;67758;39.572;2.652;2023-02-26T09:27:42;4.80;;;0.73;;
68449;SDS011;67758;39.572;2.652;2023-02-26T09:30:08;5.03;;;0.85;;
68449;SDS011;67758;39.572;2.652;2023-02-26T09:32:37;4.13;;;0.43;;
68449;SDS011;67758;39.572;2.652;2023-02-26T09:35:03;5.20;;;0.70;;
68449;SDS011;67758;39.572;2.652;2023-02-26T09:37:32;3.92;;;0.93;;
68449;SDS011;67758;39.572;2.652;2023-02-26T09:39:58;4.30;;;0.60;;
68449;SDS011;67758;39.572;2.652;2023-02-26T09:42:30;3.00;;;0.50;;
68449;SDS011;67758;39.572;2.652;2023-02-26T09:48:02;4.70;;;0.60;;
68449;SDS011;67758;39.572;2.652;2023-02-26T09:50:37;3.67;;;0.45;;
68449;SDS011;67758;39.572;2.652;2023-02-26T09:56:23;3.97;;;0.70;;
68449;SDS011;67758;39.572;2.652;2023-02-26T09:58:51;4.43;;;0.65;;
68449;SDS011;67758;39.572;2.652;2023-02-26T10:02:23;6.03;;;0.43;;
68449;SDS011;67758;39.572;2.652;2023-02-26T10:04:52;6.68;;;0.70;;
68449;SDS011;67758;39.572;2.652;2023-02-26T10:12:51;3.38;;;0.60;;
68449;SDS011;67758;39.572;2.652;2023-02-26T10:15:27;4.72;;;0.60;;
68449;SDS011;67758;39.572;2.652;2023-02-26T10:18:22;4.20;;;0.80;;
68449;SDS011;67758;39.572;2.652;2023-02-26T10:20:58;4.57;;;0.70;;
68449;SDS011;67758;39.572;2.652;2023-02-26T10:23:38;5.90;;;0.90;;
68449;SDS011;67758;39.572;2.652;2023-02-26T10:34:25;4.88;;;1.15;;
68449;SDS011;67758;39.572;2.652;2023-02-26T10:45:45;5.72;;;1.15;;
68449;SDS011;67758;39.572;2.652;2023-02-26T10:48:42;5.15;;;1.55;;
68449;SDS011;67758;39.572;2.652;2023-02-26T10:51:24;6.80;;;1.30;;
68449;SDS011;67758;39.572;2.652;2023-02-26T10:54:35;4.22;;;1.10;;
68449;SDS011;67758;39.572;2.652;2023-02-26T10:56:57;5.22;;;1.17;;
68449;SDS011;67758;39.572;2.652;2023-02-26T10:59:23;5.10;;;1.50;;
68449;SDS011;67758;39.572;2.652;2023-02-26T11:02:13;4.20;;;0.80;;
68449;SDS011;67758;39.572;2.652;2023-02-26T11:04:54;3.67;;;1.05;;
68449;SDS011;67758;39.572;2.652;2023-02-26T11:07:20;3.88;;;0.90;;
68449;SDS011;67758;39.572;2.652;2023-02-26T11:09:47;5.97;;;1.35;;
68449;SDS011;67758;39.572;2.652;2023-02-26T11:12:13;5.80;;;1.23;;
68449;SDS011;67758;39.572;2.652;2023-02-26T11:14:43;5.47;;;0.90;;
68449;SDS011;67758;39.572;2.652;2023-02-26T11:20:12;3.93;;;1.10;;
68449;SDS011;67758;39.572;2.652;2023-02-26T11:22:39;5.45;;;1.20;;
68449;SDS011;67758;39.572;2.652;2023-02-26T11:25:13;4.72;;;1.50;;
68449;SDS011;67758;39.572;2.652;2023-02-26T11:27:43;4.20;;;1.17;;
68449;SDS011;67758;39.572;2.652;2023-02-26T11:30:16;4.40;;;0.90;;
68449;SDS011;67758;39.572;2.652;2023-02-26T11:32:44;5.07;;;1.30;;
68449;SDS011;67758;39.572;2.652;2023-02-26T11:35:14;4.25;;;1.10;;
68449;SDS011;67758;39.572;2.652;2023-02-26T11:37:47;5.80;;;1.10;;
68449;SDS011;67758;39.572;2.652;2023-02-26T11:42:57;5.03;;;1.30;;
68449;SDS011;67758;39.572;2.652;2023-02-26T11:45:25;4.20;;;1.23;;
68449;SDS011;67758;39.572;2.652;2023-02-26T11:48:01;5.10;;;1.02;;
68449;SDS011;67758;39.572;2.652;2023-02-26T11:50:30;4.90;;;1.00;;
68449;SDS011;67758;39.572;2.652;2023-02-26T11:53:05;5.22;;;1.15;;
68449;SDS011;67758;39.572;2.652;2023-02-26T11:55:45;3.92;;;1.33;;
68449;SDS011;67758;39.572;2.652;2023-02-26T11:58:17;5.60;;;1.30;;
68449;SDS011;67758;39.572;2.652;2023-02-26T12:00:45;4.53;;;1.00;;
68449;SDS011;67758;39.572;2.652;2023-02-26T12:03:15;4.75;;;1.20;;
68449;SDS011;67758;39.572;2.652;2023-02-26T12:05:45;3.95;;;1.10;;
68449;SDS011;67758;39.572;2.652;2023-02-26T12:08:25;4.70;;;1.38;;
68449;SDS011;67758;39.572;2.652;2023-02-26T12:10:59;4.23;;;1.30;;
68449;SDS011;67758;39.572;2.652;2023-02-26T12:22:08;5.45;;;1.48;;
68449;SDS011;67758;39.572;2.652;2023-02-26T12:25:37;3.75;;;1.00;;
68449;SDS011;67758;39.572;2.652;2023-02-26T12:31:20;5.18;;;1.55;;
68449;SDS011;67758;39.572;2.652;2023-02-26T12:34:00;6.28;;;1.40;;
68449;SDS011;67758;39.572;2.652;2023-02-26T12:36:35;4.47;;;1.30;;
68449;SDS011;67758;39.572;2.652;2023-02-26T12:47:47;5.05;;;1.27;;
68449;SDS011;67758;39.572;2.652;2023-02-26T13:17:16;4.65;;;0.93;;
68449;SDS011;67758;39.572;2.652;2023-02-26T13:20:16;4.30;;;0.90;;
68449;SDS011;67758;39.572;2.652;2023-02-26T13:22:54;5.20;;;1.10;;
68449;SDS011;67758;39.572;2.652;2023-02-26T13:25:38;5.65;;;1.30;;
68449;SDS011;67758;39.572;2.652;2023-02-26T13:28:38;6.38;;;1.45;;
68449;SDS011;67758;39.572;2.652;2023-02-26T13:31:15;5.82;;;0.90;;
68449;SDS011;67758;39.572;2.652;2023-02-26T13:33:44;8.57;;;1.37;;
68449;SDS011;67758;39.572;2.652;2023-02-26T13:36:13;5.43;;;1.50;;
68449;SDS011;67758;39.572;2.652;2023-02-26T13:38:45;6.78;;;1.20;;
68449;SDS011;67758;39.572;2.652;2023-02-26T13:50:11;6.60;;;0.85;;
68449;SDS011;67758;39.572;2.652;2023-02-26T13:52:49;5.43;;;1.30;;
68449;SDS011;67758;39.572;2.652;2023-02-26T13:58:15;6.57;;;1.10;;
68449;SDS011;67758;39.572;2.652;2023-02-26T14:04:08;5.05;;;1.15;;
68449;SDS011;67758;39.572;2.652;2023-02-26T14:06:52;8.50;;;1.10;;
68449;SDS011;67758;39.572;2.652;2023-02-26T14:09:43;5.63;;;1.30;;
68449;SDS011;67758;39.572;2.652;2023-02-26T14:12:22;5.32;;;0.90;;
68449;SDS011;67758;39.572;2.652;2023-02-26T14:22:48;4.53;;;1.20;;
68449;SDS011;67758;39.572;2.652;2023-02-26T14:25:18;3.65;;;0.80;;
68449;SDS011;67758;39.572;2.652;2023-02-26T14:27:49;5.10;;;1.00;;
68449;SDS011;67758;39.572;2.652;2023-02-26T14:35:27;6.43;;;1.40;;
68449;SDS011;67758;39.572;2.652;2023-02-26T14:38:00;5.57;;;1.00;;
68449;SDS011;67758;39.572;2.652;2023-02-26T14:40:28;7.43;;;1.45;;
68449;SDS011;67758;39.572;2.652;2023-02-26T14:42:58;6.95;;;1.30;;
68449;SDS011;67758;39.572;2.652;2023-02-26T14:45:36;5.15;;;1.40;;
68449;SDS011;67758;39.572;2.652;2023-02-26T14:48:04;6.80;;;1.20;;
68449;SDS011;67758;39.572;2.652;2023-02-26T14:50:36;6.70;;;1.50;;
68449;SDS011;67758;39.572;2.652;2023-02-26T14:53:28;5.70;;;0.80;;
68449;SDS011;67758;39.572;2.652;2023-02-26T14:58:44;6.18;;;1.38;;
68449;SDS011;67758;39.572;2.652;2023-02-26T15:07:13;6.18;;;1.00;;
68449;SDS011;67758;39.572;2.652;2023-02-26T15:26:23;7.50;;;1.13;;
68449;SDS011;67758;39.572;2.652;2023-02-26T15:28:52;5.60;;;1.00;;
68449;SDS011;67758;39.572;2.652;2023-02-26T15:31:20;6.07;;;1.10;;
68449;SDS011;67758;39.572;2.652;2023-02-26T15:33:55;6.88;;;1.20;;
68449;SDS011;67758;39.572;2.652;2023-02-26T15:36:22;8.30;;;1.48;;
68449;SDS011;67758;39.572;2.652;2023-02-26T15:38:58;6.10;;;1.20;;
68449;SDS011;67758;39.572;2.652;2023-02-26T15:41:29;5.57;;;1.10;;
68449;SDS011;67758;39.572;2.652;2023-02-26T15:43:58;5.82;;;1.50;;
68449;SDS011;67758;39.572;2.652;2023-02-26T15:46:32;5.63;;;1.35;;
68449;SDS011;67758;39.572;2.652;2023-02-26T15:49:02;4.72;;;1.10;;
68449;SDS011;67758;39.572;2.652;2023-02-26T15:51:31;6.03;;;1.35;;
68449;SDS011;67758;39.572;2.652;2023-02-26T15:53:57;5.87;;;1.13;;
68449;SDS011;67758;39.572;2.652;2023-02-26T15:56:28;5.85;;;1.05;;
68449;SDS011;67758;39.572;2.652;2023-02-26T15:59:02;7.55;;;1.10;;
68449;SDS011;67758;39.572;2.652;2023-02-26T16:01:48;5.80;;;1.08;;
68449;SDS011;67758;39.572;2.652;2023-02-26T16:04:15;5.33;;;1.40;;
68449;SDS011;67758;39.572;2.652;2023-02-26T16:06:47;7.28;;;1.52;;
68449;SDS011;67758;39.572;2.652;2023-02-26T16:09:27;6.93;;;1.38;;
68449;SDS011;67758;39.572;2.652;2023-02-26T16:11:56;7.47;;;1.67;;
68449;SDS011;67758;39.572;2.652;2023-02-26T16:14:26;8.52;;;1.42;;
68449;SDS011;67758;39.572;2.652;2023-02-26T16:16:56;7.83;;;1.40;;
68449;SDS011;67758;39.572;2.652;2023-02-26T16:22:04;8.35;;;1.60;;
68449;SDS011;67758;39.572;2.652;2023-02-26T16:25:05;7.22;;;1.40;;
68449;SDS011;67758;39.572;2.652;2023-02-26T16:27:46;7.00;;;1.38;;
68449;SDS011;67758;39.572;2.652;2023-02-26T16:30:16;8.27;;;1.33;;
68449;SDS011;67758;39.572;2.652;2023-02-26T16:32:46;7.53;;;1.60;;
68449;SDS011;67758;39.572;2.652;2023-02-26T16:35:19;5.93;;;1.08;;
68449;SDS011;67758;39.572;2.652;2023-02-26T16:37:49;10.65;;;2.22;;
68449;SDS011;67758;39.572;2.652;2023-02-26T16:40:19;6.35;;;1.75;;
68449;SDS011;67758;39.572;2.652;2023-02-26T16:45:16;7.95;;;2.58;;
68449;SDS011;67758;39.572;2.652;2023-02-26T16:47:53;7.35;;;1.85;;
68449;SDS011;67758;39.572;2.652;2023-02-26T16:50:23;12.77;;;5.10;;
68449;SDS011;67758;39.572;2.652;2023-02-26T16:52:55;9.80;;;3.42;;
68449;SDS011;67758;39.572;2.652;2023-02-26T16:55:26;10.90;;;4.47;;
68449;SDS011;67758;39.572;2.652;2023-02-26T16:57:56;8.60;;;2.13;;
68449;SDS011;67758;39.572;2.652;2023-02-26T17:00:23;7.80;;;2.40;;
68449;SDS011;67758;39.572;2.652;2023-02-26T17:02:56;7.03;;;2.00;;
68449;SDS011;67758;39.572;2.652;2023-02-26T17:05:26;12.93;;;4.88;;
68449;SDS011;67758;39.572;2.652;2023-02-26T17:07:55;9.15;;;2.42;;
68449;SDS011;67758;39.572;2.652;2023-02-26T17:11:01;11.32;;;2.35;;
68449;SDS011;67758;39.572;2.652;2023-02-26T17:13:31;7.28;;;2.63;;
68449;SDS011;67758;39.572;2.652;2023-02-26T17:16:03;7.23;;;3.47;;
68449;SDS011;67758;39.572;2.652;2023-02-26T17:18:31;6.70;;;1.73;;
68449;SDS011;67758;39.572;2.652;2023-02-26T17:21:00;6.93;;;1.85;;
68449;SDS011;67758;39.572;2.652;2023-02-26T17:23:34;7.28;;;1.98;;
68449;SDS011;67758;39.572;2.652;2023-02-26T17:26:01;9.90;;;2.13;;
68449;SDS011;67758;39.572;2.652;2023-02-26T17:28:32;8.77;;;1.30;;
68449;SDS011;67758;39.572;2.652;2023-02-26T17:31:00;5.88;;;1.20;;
68449;SDS011;67758;39.572;2.652;2023-02-26T17:33:27;4.75;;;1.05;;
68449;SDS011;67758;39.572;2.652;2023-02-26T17:36:00;10.23;;;3.03;;
68449;SDS011;67758;39.572;2.652;2023-02-26T17:38:28;5.82;;;1.13;;
68449;SDS011;67758;39.572;2.652;2023-02-26T17:40:54;8.32;;;2.20;;
68449;SDS011;67758;39.572;2.652;2023-02-26T17:43:21;8.23;;;2.40;;
68449;SDS011;67758;39.572;2.652;2023-02-26T17:45:47;7.33;;;1.70;;
68449;SDS011;67758;39.572;2.652;2023-02-26T17:48:13;5.82;;;1.30;;
68449;SDS011;67758;39.572;2.652;2023-02-26T17:50:47;11.50;;;1.20;;
68449;SDS011;67758;39.572;2.652;2023-02-26T17:53:16;7.37;;;1.47;;
68449;SDS011;67758;39.572;2.652;2023-02-26T17:55:43;5.72;;;1.23;;
68449;SDS011;67758;39.572;2.652;2023-02-26T17:58:14;7.45;;;3.03;;
68449;SDS011;67758;39.572;2.652;2023-02-26T18:00:48;7.50;;;1.85;;
68449;SDS011;67758;39.572;2.652;2023-02-26T18:03:17;12.57;;;3.38;;
68449;SDS011;67758;39.572;2.652;2023-02-26T18:05:44;7.53;;;1.60;;
68449;SDS011;67758;39.572;2.652;2023-02-26T18:08:21;7.07;;;1.90;;
68449;SDS011;67758;39.572;2.652;2023-02-26T18:10:48;6.57;;;1.45;;
68449;SDS011;67758;39.572;2.652;2023-02-26T18:13:14;8.65;;;2.63;;
68449;SDS011;67758;39.572;2.652;2023-02-26T18:15:40;9.70;;;2.40;;
68449;SDS011;67758;39.572;2.652;2023-02-26T18:18:08;11.02;;;3.53;;
68449;SDS011;67758;39.572;2.652;2023-02-26T18:20:35;8.45;;;1.90;;
68449;SDS011;67758;39.572;2.652;2023-02-26T18:23:01;6.03;;;1.40;;
68449;SDS011;67758;39.572;2.652;2023-02-26T18:25:27;5.35;;;1.20;;
68449;SDS011;67758;39.572;2.652;2023-02-26T18:27:53;6.20;;;1.90;;
68449;SDS011;67758;39.572;2.652;2023-02-26T18:30:25;8.77;;;2.10;;
68449;SDS011;67758;39.572;2.652;2023-02-26T18:32:53;6.15;;;1.40;;
68449;SDS011;67758;39.572;2.652;2023-02-26T18:35:19;7.65;;;1.70;;
68449;SDS011;67758;39.572;2.652;2023-02-26T18:37:45;6.30;;;1.40;;
68449;SDS011;67758;39.572;2.652;2023-02-26T18:40:15;8.32;;;1.60;;
68449;SDS011;67758;39.572;2.652;2023-02-26T18:42:43;8.15;;;1.48;;
68449;SDS011;67758;39.572;2.652;2023-02-26T18:45:09;6.33;;;1.43;;
68449;SDS011;67758;39.572;2.652;2023-02-26T18:47:36;9.57;;;1.92;;
68449;SDS011;67758;39.572;2.652;2023-02-26T18:50:02;6.82;;;1.77;;
68449;SDS011;67758;39.572;2.652;2023-02-26T18:52:29;6.40;;;1.90;;
68449;SDS011;67758;39.572;2.652;2023-02-26T18:54:54;6.43;;;1.40;;
68449;SDS011;67758;39.572;2.652;2023-02-26T18:57:20;7.07;;;1.60;;
68449;SDS011;67758;39.572;2.652;2023-02-26T18:59:47;6.63;;;1.20;;
68449;SDS011;67758;39.572;2.652;2023-02-26T19:02:12;6.47;;;1.90;;
68449;SDS011;67758;39.572;2.652;2023-02-26T19:04:38;7.77;;;1.77;;
68449;SDS011;67758;39.572;2.652;2023-02-26T19:07:05;6.68;;;1.70;;
68449;SDS011;67758;39.572;2.652;2023-02-26T19:09:31;7.40;;;1.63;;
68449;SDS011;67758;39.572;2.652;2023-02-26T19:11:59;8.20;;;1.70;;
68449;SDS011;67758;39.572;2.652;2023-02-26T19:14:25;5.53;;;1.33;;
68449;SDS011;67758;39.572;2.652;2023-02-26T19:16:51;6.73;;;1.40;;
68449;SDS011;67758;39.572;2.652;2023-02-26T19:19:17;8.63;;;1.30;;
68449;SDS011;67758;39.572;2.652;2023-02-26T19:21:43;7.95;;;1.67;;
68449;SDS011;67758;39.572;2.652;2023-02-26T19:24:09;5.43;;;1.60;;
68449;SDS011;67758;39.572;2.652;2023-02-26T19:26:37;6.75;;;1.50;;
68449;SDS011;67758;39.572;2.652;2023-02-26T19:29:03;6.93;;;2.53;;
68449;SDS011;67758;39.572;2.652;2023-02-26T19:31:30;7.88;;;2.33;;
68449;SDS011;67758;39.572;2.652;2023-02-26T19:33:56;9.20;;;2.50;;
68449;SDS011;67758;39.572;2.652;2023-02-26T19:36:22;10.38;;;2.40;;
68449;SDS011;67758;39.572;2.652;2023-02-26T19:38:48;8.23;;;1.60;;
68449;SDS011;67758;39.572;2.652;2023-02-26T19:41:15;7.38;;;1.70;;
68449;SDS011;67758;39.572;2.652;2023-02-26T19:43:44;8.52;;;1.80;;
68449;SDS011;67758;39.572;2.652;2023-02-26T19:46:11;6.70;;;1.23;;
68449;SDS011;67758;39.572;2.652;2023-02-26T19:48:37;6.03;;;1.30;;
68449;SDS011;67758;39.572;2.652;2023-02-26T19:51:04;6.87;;;1.70;;
68449;SDS011;67758;39.572;2.652;2023-02-26T19:53:30;7.38;;;1.80;;
68449;SDS011;67758;39.572;2.652;2023-02-26T19:55:58;8.57;;;2.40;;
68449;SDS011;67758;39.572;2.652;2023-02-26T19:58:23;7.13;;;2.33;;
68449;SDS011;67758;39.572;2.652;2023-02-26T20:00:50;7.83;;;2.43;;
68449;SDS011;67758;39.572;2.652;2023-02-26T20:03:17;8.95;;;2.47;;
68449;SDS011;67758;39.572;2.652;2023-02-26T20:05:42;5.47;;;1.52;;